createdAt,value
2022-10-20T00:01:26.220Z,19.50
2022-10-20T00:03:55.713Z,22.85
2022-10-20T00:06:26.163Z,20.15
2022-10-20T00:08:58.014Z,19.52
2022-10-20T00:11:28.066Z,18.48
2022-10-20T00:14:00.127Z,19.80
2022-10-20T00:16:31.363Z,20.80
2022-10-20T00:19:00.485Z,19.83
2022-10-20T00:21:30.524Z,19.42
2022-10-20T00:24:02.049Z,18.65
2022-10-20T00:26:32.245Z,19.33
2022-10-20T00:29:03.621Z,19.27
2022-10-20T00:31:32.996Z,19.48
2022-10-20T00:34:01.752Z,19.83
2022-10-20T00:36:30.677Z,19.05
2022-10-20T00:39:01.586Z,20.40
2022-10-20T00:41:31.227Z,19.63
2022-10-20T00:44:03.203Z,19.30
2022-10-20T00:46:38.744Z,19.80
2022-10-20T00:49:14.150Z,19.73
2022-10-20T00:51:43.624Z,21.77
2022-10-20T00:54:16.454Z,19.92
2022-10-20T00:56:47.291Z,19.92
2022-10-20T00:59:23.080Z,20.55
2022-10-20T01:01:52.195Z,21.52
2022-10-20T01:04:21.236Z,20.40
2022-10-20T01:06:50.217Z,21.88
2022-10-20T01:09:19.173Z,20.30
2022-10-20T01:11:57.616Z,24.05
2022-10-20T01:14:39.198Z,22.92
2022-10-20T01:17:18.266Z,22.15
2022-10-20T01:20:24.595Z,21.67
2022-10-20T01:23:23.613Z,20.75
2022-10-20T01:26:10.274Z,21.92
2022-10-20T01:28:47.687Z,22.00
2022-10-20T01:31:29.950Z,21.30
2022-10-20T01:34:04.755Z,21.33
2022-10-20T01:36:39.106Z,21.45
2022-10-20T01:39:12.286Z,22.13
2022-10-20T01:41:43.742Z,22.30
2022-10-20T01:44:17.625Z,26.15
2022-10-20T01:46:47.722Z,20.98
2022-10-20T01:49:17.067Z,21.02
2022-10-20T01:51:45.969Z,21.38
2022-10-20T01:54:25.086Z,20.42
2022-10-20T01:57:09.051Z,21.52
2022-10-20T02:00:04.151Z,20.30
2022-10-20T02:03:00.726Z,20.73
2022-10-20T02:05:41.484Z,21.15
2022-10-20T02:08:18.124Z,19.63
2022-10-20T02:10:49.876Z,20.10
2022-10-20T02:13:20.290Z,19.52
2022-10-20T02:15:55.049Z,19.65
2022-10-20T02:18:28.127Z,20.73
2022-10-20T02:21:00.024Z,20.42
2022-10-20T02:23:35.111Z,23.75
2022-10-20T02:26:08.845Z,20.23
2022-10-20T02:28:41.874Z,19.60
2022-10-20T02:31:12.822Z,21.70
2022-10-20T02:33:44.963Z,18.70
2022-10-20T02:36:18.233Z,21.63
2022-10-20T02:38:47.502Z,18.98
2022-10-20T02:41:16.463Z,20.02
2022-10-20T02:43:45.265Z,19.95
2022-10-20T02:46:17.426Z,19.50
2022-10-20T02:48:46.574Z,18.85
2022-10-20T02:51:15.534Z,19.85
2022-10-20T02:53:44.324Z,19.85
2022-10-20T02:56:13.500Z,19.88
2022-10-20T02:58:42.594Z,19.55
2022-10-20T03:01:11.425Z,20.13
2022-10-20T03:03:41.574Z,20.08
2022-10-20T03:06:12.296Z,22.63
2022-10-20T03:08:41.404Z,20.08
2022-10-20T03:11:10.749Z,20.73
2022-10-20T03:13:39.522Z,20.95
2022-10-20T03:16:08.646Z,19.23
2022-10-20T03:18:37.472Z,20.38
2022-10-20T03:21:07.673Z,19.63
2022-10-20T03:23:36.534Z,20.17
2022-10-20T03:26:06.233Z,20.13
2022-10-20T03:28:35.393Z,21.00
2022-10-20T03:31:04.754Z,20.85
2022-10-20T03:33:33.470Z,20.15
2022-10-20T03:36:02.762Z,20.80
2022-10-20T03:38:33.006Z,21.33
2022-10-20T03:43:36.653Z,21.42
2022-10-20T03:46:06.784Z,21.30
2022-10-20T03:48:36.240Z,20.50
2022-10-20T03:51:05.838Z,19.45
2022-10-20T03:53:36.434Z,20.25
2022-10-20T03:56:08.304Z,19.65
2022-10-20T03:58:37.592Z,19.83
2022-10-20T04:01:09.445Z,19.42
2022-10-20T04:03:38.235Z,20.63
2022-10-20T04:06:07.343Z,21.13
2022-10-20T04:08:37.709Z,20.77
2022-10-20T04:11:06.973Z,19.08
2022-10-20T04:13:35.792Z,19.05
2022-10-20T04:16:04.553Z,18.88
2022-10-20T04:18:33.594Z,19.33
2022-10-20T04:21:02.420Z,21.13
2022-10-20T04:23:31.208Z,19.58
2022-10-20T04:26:01.462Z,18.80
2022-10-20T04:28:31.252Z,19.45
2022-10-20T04:31:01.949Z,18.70
2022-10-20T04:33:30.816Z,18.90
2022-10-20T04:36:00.766Z,19.40
2022-10-20T04:38:31.453Z,19.15
2022-10-20T04:41:04.476Z,19.10
2022-10-20T04:43:33.891Z,19.08
2022-10-20T04:46:06.991Z,18.92
2022-10-20T04:48:38.259Z,19.85
2022-10-20T04:51:09.319Z,19.08
2022-10-20T04:53:38.294Z,19.58
2022-10-20T04:56:10.328Z,20.08
2022-10-20T04:58:39.169Z,19.00
2022-10-20T05:01:09.708Z,21.40
2022-10-20T05:03:38.857Z,19.73
2022-10-20T05:06:12.344Z,22.73
2022-10-20T05:08:44.073Z,19.80
2022-10-20T05:11:15.678Z,20.80
2022-10-20T05:13:44.916Z,22.55
2022-10-20T05:16:14.207Z,21.20
2022-10-20T05:18:43.096Z,20.58
2022-10-20T05:21:14.267Z,21.17
2022-10-20T05:23:44.049Z,19.00
2022-10-20T05:26:16.559Z,20.70
2022-10-20T05:28:46.822Z,19.05
2022-10-20T05:31:16.400Z,20.33
2022-10-20T05:33:47.087Z,22.08
2022-10-20T05:36:21.175Z,19.63
2022-10-20T05:38:52.431Z,19.05
2022-10-20T05:41:24.961Z,17.98
2022-10-20T05:43:57.392Z,19.23
2022-10-20T05:49:33.397Z,19.50
2022-10-20T05:52:10.286Z,21.27
2022-10-20T05:54:39.058Z,21.92
2022-10-20T05:57:09.251Z,19.52
2022-10-20T05:59:38.020Z,20.30
2022-10-20T06:02:06.838Z,23.20
2022-10-20T06:04:35.780Z,19.58
2022-10-20T06:07:06.038Z,19.52
2022-10-20T06:09:34.938Z,22.65
2022-10-20T06:12:03.918Z,19.48
2022-10-20T06:14:34.423Z,22.15
2022-10-20T06:17:03.616Z,27.40
2022-10-20T06:19:32.574Z,22.25
2022-10-20T06:22:05.451Z,20.48
2022-10-20T06:24:35.973Z,22.13
2022-10-20T06:27:04.963Z,21.70
2022-10-20T06:29:35.336Z,22.67
2022-10-20T06:32:04.575Z,19.58
2022-10-20T06:34:33.670Z,21.73
2022-10-20T06:37:02.555Z,22.02
2022-10-20T06:39:31.428Z,19.05
2022-10-20T06:42:00.330Z,19.08
2022-10-20T06:44:35.521Z,19.58
2022-10-20T06:47:07.702Z,19.30
2022-10-20T06:49:36.729Z,18.25
2022-10-20T06:52:06.090Z,18.77
2022-10-20T06:54:35.140Z,18.98
2022-10-20T06:57:04.081Z,17.98
2022-10-20T06:59:34.642Z,18.38
2022-10-20T07:02:03.591Z,19.23
2022-10-20T07:04:32.389Z,17.17
2022-10-20T07:07:01.295Z,17.70
2022-10-20T07:09:30.213Z,18.83
2022-10-20T07:11:59.133Z,19.95
2022-10-20T07:14:31.607Z,18.38
2022-10-20T07:17:02.940Z,16.58
2022-10-20T07:19:32.131Z,19.27
2022-10-20T07:22:01.244Z,20.50
2022-10-20T07:24:30.430Z,17.38
2022-10-20T07:26:59.313Z,19.35
2022-10-20T07:29:28.374Z,21.23
2022-10-20T07:31:59.964Z,30.60
2022-10-20T07:34:31.841Z,17.05
2022-10-20T07:37:00.781Z,17.23
2022-10-20T07:39:30.010Z,17.77
2022-10-20T07:41:58.948Z,17.80
2022-10-20T07:44:27.780Z,17.63
2022-10-20T07:46:56.730Z,17.52
2022-10-20T07:49:43.433Z,16.75
2022-10-20T07:52:16.721Z,24.13
2022-10-20T07:54:45.992Z,17.70
2022-10-20T07:57:14.831Z,18.58
2022-10-20T07:59:43.922Z,18.55
2022-10-20T08:02:15.998Z,19.38
2022-10-20T08:04:45.994Z,18.05
2022-10-20T08:07:16.413Z,15.98
2022-10-20T08:09:47.514Z,18.35
2022-10-20T08:12:17.031Z,17.38
2022-10-20T08:14:46.204Z,20.65
2022-10-20T08:17:15.112Z,21.80
2022-10-20T08:20:00.282Z,17.05
2022-10-20T08:22:30.631Z,17.55
2022-10-20T08:24:59.615Z,19.48
2022-10-20T08:27:28.559Z,18.50
2022-10-20T08:30:06.210Z,20.23
2022-10-20T08:32:46.483Z,19.05
2022-10-20T08:35:15.360Z,18.70
2022-10-20T08:37:45.810Z,17.67
2022-10-20T08:40:19.372Z,17.52
2022-10-20T08:42:49.563Z,21.13
2022-10-20T08:45:20.792Z,15.68
2022-10-20T08:47:52.529Z,21.63
2022-10-20T08:50:23.282Z,17.88
2022-10-20T08:52:57.672Z,15.88
2022-10-20T08:55:30.047Z,16.35
2022-10-20T08:58:03.693Z,17.45
2022-10-20T09:00:36.020Z,18.30
2022-10-20T09:03:17.013Z,14.50
2022-10-20T09:05:50.093Z,17.67
2022-10-20T09:08:22.872Z,16.63
2022-10-20T09:10:54.951Z,18.20
2022-10-20T09:13:27.124Z,18.10
2022-10-20T09:16:00.373Z,17.63
2022-10-20T09:18:29.473Z,16.52
2022-10-20T09:21:02.111Z,20.05
2022-10-20T09:23:41.958Z,17.83
2022-10-20T09:26:30.355Z,19.40
2022-10-20T09:29:13.385Z,20.08
2022-10-20T09:31:45.854Z,21.35
2022-10-20T09:34:26.564Z,23.90
2022-10-20T09:36:59.481Z,18.90
2022-10-20T09:39:33.611Z,19.13
2022-10-20T09:42:06.607Z,16.15
2022-10-20T09:44:46.545Z,21.60
2022-10-20T09:47:17.602Z,20.83
2022-10-20T09:49:47.622Z,17.60
2022-10-20T09:52:20.364Z,16.27
2022-10-20T09:54:52.213Z,15.90
2022-10-20T09:57:24.274Z,15.95
2022-10-20T09:59:55.833Z,17.08
2022-10-20T10:02:33.972Z,15.25
2022-10-20T10:05:19.272Z,18.02
2022-10-20T10:07:59.562Z,16.15
2022-10-20T10:10:31.872Z,16.35
2022-10-20T10:13:04.111Z,17.00
2022-10-20T10:15:35.989Z,16.17
2022-10-20T10:18:15.421Z,16.98
2022-10-20T10:20:44.442Z,14.68
2022-10-20T10:23:22.483Z,17.70
2022-10-20T10:25:56.792Z,16.58
2022-10-20T10:28:38.526Z,15.02
2022-10-20T10:31:25.281Z,16.42
2022-10-20T10:34:03.832Z,16.27
2022-10-20T10:36:35.796Z,17.20
2022-10-20T10:39:08.073Z,18.10
2022-10-20T10:42:00.886Z,14.35
2022-10-20T10:44:45.443Z,15.38
2022-10-20T10:47:34.207Z,14.45
2022-10-20T10:50:23.999Z,15.60
2022-10-20T10:53:00.568Z,15.82
2022-10-20T10:55:48.260Z,16.70
2022-10-20T10:58:30.457Z,17.05
2022-10-20T11:01:11.155Z,21.35
2022-10-20T11:04:09.575Z,16.02
2022-10-20T11:06:45.110Z,15.68
2022-10-20T11:09:26.930Z,15.02
2022-10-20T11:12:16.167Z,15.90
2022-10-20T11:14:55.625Z,15.63
2022-10-20T11:17:40.036Z,15.70
2022-10-20T11:20:26.938Z,18.15
2022-10-20T11:23:15.950Z,16.75
2022-10-20T11:25:51.418Z,17.10
2022-10-20T11:28:30.851Z,18.88
2022-10-20T11:31:01.879Z,17.08
2022-10-20T11:33:39.306Z,16.38
2022-10-20T11:36:17.013Z,21.25
2022-10-20T11:38:51.335Z,18.05
2022-10-20T11:41:25.328Z,17.88
2022-10-20T11:44:00.558Z,15.05
2022-10-20T11:46:38.407Z,15.35
2022-10-20T11:49:12.360Z,19.38
2022-10-20T11:52:04.496Z,14.88
2022-10-20T11:55:06.408Z,14.23
2022-10-20T11:57:48.398Z,15.90
2022-10-20T12:00:43.681Z,16.60
2022-10-20T12:03:43.027Z,17.38
2022-10-20T12:06:49.252Z,15.88
2022-10-20T12:09:44.659Z,17.08
2022-10-20T12:12:20.109Z,15.55
2022-10-20T12:14:55.581Z,19.73
2022-10-20T12:17:34.618Z,15.35
2022-10-20T12:20:47.907Z,19.13
2022-10-20T12:23:52.318Z,19.45
2022-10-20T12:27:06.038Z,16.65
2022-10-20T12:30:24.091Z,17.23
2022-10-20T12:33:18.078Z,16.80
2022-10-20T12:36:13.751Z,18.02
2022-10-20T12:38:43.997Z,17.08
2022-10-20T12:41:26.239Z,23.20
2022-10-20T12:43:59.678Z,20.17
2022-10-20T12:46:31.677Z,16.27
2022-10-20T12:49:06.760Z,19.65
2022-10-20T12:51:42.298Z,19.33
2022-10-20T12:54:22.639Z,20.13
2022-10-20T12:56:52.357Z,17.67
2022-10-20T12:59:43.196Z,22.45
2022-10-20T13:02:45.554Z,18.92
2022-10-20T13:05:48.533Z,18.25
2022-10-20T13:08:31.571Z,21.52
2022-10-20T13:11:41.139Z,21.38
2022-10-20T13:14:48.562Z,19.80
2022-10-20T13:18:20.303Z,20.70
2022-10-20T13:20:56.943Z,20.95
2022-10-20T13:23:30.972Z,22.25
2022-10-20T13:26:01.354Z,19.23
2022-10-20T13:28:33.005Z,23.00
2022-10-20T13:31:20.829Z,17.52
2022-10-20T13:34:04.508Z,22.60
2022-10-20T13:36:57.178Z,19.70
2022-10-20T13:39:36.310Z,17.38
2022-10-20T13:42:13.871Z,18.65
2022-10-20T13:44:54.753Z,19.02
2022-10-20T13:47:49.600Z,19.67
2022-10-20T13:50:22.076Z,21.50
2022-10-20T13:52:57.175Z,18.27
2022-10-20T13:55:28.400Z,18.27
2022-10-20T13:57:59.651Z,19.00
2022-10-20T14:00:30.227Z,18.15
2022-10-20T14:03:03.896Z,18.10
2022-10-20T14:05:39.260Z,18.05
2022-10-20T14:08:12.531Z,22.80
2022-10-20T14:10:48.655Z,17.63
2022-10-20T14:13:21.114Z,18.08
2022-10-20T14:15:53.738Z,16.65
2022-10-20T14:18:25.639Z,18.13
2022-10-20T14:21:03.589Z,21.48
2022-10-20T14:23:36.916Z,16.20
2022-10-20T14:26:08.746Z,17.42
2022-10-20T14:28:38.726Z,18.88
2022-10-20T14:31:09.507Z,20.42
2022-10-20T14:33:43.306Z,17.65
2022-10-20T14:36:20.888Z,21.33
2022-10-20T14:38:53.460Z,21.92
2022-10-20T14:41:27.444Z,22.90
2022-10-20T14:44:03.344Z,20.45
2022-10-20T14:46:38.509Z,18.02
2022-10-20T14:49:16.507Z,20.60
2022-10-20T14:51:55.404Z,20.70
2022-10-20T14:54:36.327Z,20.98
2022-10-20T14:57:31.509Z,20.70
2022-10-20T15:00:03.865Z,18.70
2022-10-20T15:02:35.536Z,15.00
2022-10-20T15:05:23.478Z,18.00
2022-10-20T15:07:52.940Z,16.73
2022-10-20T15:10:26.119Z,16.90
2022-10-20T15:12:56.589Z,15.10
2022-10-20T15:15:27.895Z,15.80
2022-10-20T15:18:14.616Z,16.38
2022-10-20T15:20:44.497Z,19.05
2022-10-20T15:23:15.575Z,20.83
2022-10-20T15:25:50.159Z,17.05
2022-10-20T15:28:33.023Z,19.75
2022-10-20T15:31:03.184Z,18.77
2022-10-20T15:33:31.913Z,16.67
2022-10-20T15:36:02.174Z,16.83
2022-10-20T15:38:31.284Z,18.75
2022-10-20T15:41:03.220Z,16.20
2022-10-20T15:43:32.015Z,14.55
2022-10-20T15:46:00.781Z,16.13
2022-10-20T15:48:29.582Z,19.52
2022-10-20T15:50:59.334Z,24.33
2022-10-20T15:53:28.074Z,17.15
2022-10-20T15:55:56.976Z,16.60
2022-10-20T15:58:27.165Z,14.38
2022-10-20T16:00:56.003Z,23.30
2022-10-20T16:03:24.906Z,15.85
2022-10-20T16:05:54.076Z,18.38
2022-10-20T16:08:22.867Z,14.75
2022-10-20T16:10:51.676Z,20.10
2022-10-20T16:13:21.326Z,16.35
2022-10-20T16:15:51.598Z,19.20
2022-10-20T16:18:21.535Z,18.92
2022-10-20T16:20:50.337Z,20.65
2022-10-20T16:23:19.137Z,20.20
2022-10-20T16:25:47.920Z,18.42
2022-10-20T16:28:16.719Z,19.25
2022-10-20T16:30:46.141Z,17.67
2022-10-20T16:33:16.509Z,21.40
2022-10-20T16:35:45.851Z,19.30
2022-10-20T16:38:14.550Z,17.98
2022-10-20T16:40:43.440Z,22.00
2022-10-20T16:43:12.274Z,18.83
2022-10-20T16:45:41.367Z,20.27
2022-10-20T16:48:10.164Z,19.10
2022-10-20T16:50:44.006Z,19.13
2022-10-20T16:53:12.861Z,20.67
2022-10-20T16:55:41.745Z,21.63
2022-10-20T16:58:10.493Z,20.02
2022-10-20T17:00:39.350Z,22.52
2022-10-20T17:03:08.241Z,20.15
2022-10-20T17:05:37.007Z,19.55
2022-10-20T17:08:07.282Z,20.83
2022-10-20T17:10:36.095Z,22.85
2022-10-20T17:13:04.838Z,20.15
2022-10-20T17:15:33.679Z,20.30
2022-10-20T17:18:02.441Z,25.30
2022-10-20T17:20:31.484Z,22.17
2022-10-20T17:23:02.959Z,23.58
2022-10-20T17:25:34.525Z,24.58
2022-10-20T17:28:03.365Z,31.02
2022-10-20T17:30:32.299Z,24.00
2022-10-20T17:33:01.098Z,24.92
2022-10-20T17:35:31.659Z,25.23
2022-10-20T17:38:04.382Z,24.50
2022-10-20T17:40:39.359Z,24.70
2022-10-20T17:43:08.241Z,23.70
2022-10-20T17:45:39.512Z,21.58
2022-10-20T17:48:10.181Z,24.38
2022-10-20T17:50:39.041Z,25.05
2022-10-20T17:53:07.812Z,33.00
2022-10-20T17:55:38.030Z,26.77
2022-10-20T17:58:08.881Z,27.52
2022-10-20T18:00:55.524Z,25.77
2022-10-20T18:03:26.602Z,25.65
2022-10-20T18:05:56.198Z,28.13
2022-10-20T18:08:25.023Z,26.20
2022-10-20T18:10:55.240Z,25.17
2022-10-20T18:13:23.958Z,26.25
2022-10-20T18:15:52.819Z,27.02
2022-10-20T18:18:21.550Z,25.48
2022-10-20T18:20:56.460Z,25.42
2022-10-20T18:23:25.920Z,24.02
2022-10-20T18:25:56.173Z,31.48
2022-10-20T18:28:25.275Z,28.67
2022-10-20T18:30:54.116Z,26.27
2022-10-20T18:33:23.010Z,30.88
2022-10-20T18:35:53.944Z,32.83
2022-10-20T18:38:22.750Z,33.40
2022-10-20T18:40:51.521Z,35.72
2022-10-20T18:43:21.740Z,39.65
2022-10-20T18:45:53.451Z,31.77
2022-10-20T18:48:22.430Z,29.52
2022-10-20T18:50:55.321Z,30.50
2022-10-20T18:53:24.741Z,27.30
2022-10-20T18:56:03.819Z,31.42
2022-10-20T18:58:36.702Z,29.25
2022-10-20T19:01:07.748Z,27.55
2022-10-20T19:03:38.361Z,25.90
2022-10-20T19:06:09.670Z,26.40
2022-10-20T19:08:39.472Z,24.80
2022-10-20T19:11:10.410Z,27.15
2022-10-20T19:13:41.231Z,26.88
2022-10-20T19:16:12.941Z,25.02
2022-10-20T19:18:44.081Z,24.33
2022-10-20T19:21:13.116Z,25.92
2022-10-20T19:23:44.341Z,25.98
2022-10-20T19:26:14.981Z,27.33
2022-10-20T19:28:47.941Z,26.25
2022-10-20T19:31:21.409Z,28.40
2022-10-20T19:33:52.244Z,26.13
2022-10-20T19:36:21.501Z,27.50
2022-10-20T19:38:50.460Z,28.20
2022-10-20T19:41:19.488Z,30.80
2022-10-20T19:43:50.270Z,30.35
2022-10-20T19:46:20.770Z,28.45
2022-10-20T19:48:50.811Z,29.75
2022-10-20T19:51:21.683Z,28.55
2022-10-20T19:53:51.240Z,29.50
2022-10-20T19:56:20.251Z,28.83
2022-10-20T19:58:50.790Z,29.77
2022-10-20T20:01:22.277Z,29.45
2022-10-20T20:03:51.210Z,31.52
2022-10-20T20:06:21.610Z,29.42
2022-10-20T20:08:54.136Z,29.50
2022-10-20T20:11:26.569Z,28.48
2022-10-20T20:13:59.511Z,28.20
2022-10-20T20:16:29.654Z,26.67
2022-10-20T20:18:58.751Z,26.25
2022-10-20T20:21:27.971Z,26.02
2022-10-20T20:23:59.896Z,26.05
2022-10-20T20:26:30.803Z,25.77
2022-10-20T20:29:01.509Z,27.25
2022-10-20T20:31:30.751Z,27.08
2022-10-20T20:33:59.748Z,23.90
2022-10-20T20:36:29.343Z,24.60
2022-10-20T20:38:59.313Z,24.25
2022-10-20T20:41:30.420Z,24.27
2022-10-20T20:44:05.448Z,24.95
2022-10-20T20:46:36.683Z,24.55
2022-10-20T20:49:05.910Z,24.95
2022-10-20T20:51:34.712Z,25.65
2022-10-20T20:54:04.871Z,23.98
2022-10-20T20:56:34.133Z,25.45
2022-10-20T20:59:04.862Z,25.58
2022-10-20T21:01:34.164Z,23.20
2022-10-20T21:04:05.289Z,24.20
2022-10-20T21:07:00.057Z,24.23
2022-10-20T21:09:24.990Z,23.80
2022-10-20T21:11:53.836Z,24.40
2022-10-20T21:14:24.313Z,23.45
2022-10-20T21:16:53.073Z,23.00
2022-10-20T21:19:24.743Z,22.50
2022-10-20T21:21:57.582Z,22.75
2022-10-20T21:24:27.521Z,22.63
2022-10-20T21:26:56.918Z,23.40
2022-10-20T21:29:27.298Z,22.90
2022-10-20T21:31:58.161Z,21.60
2022-10-20T21:34:27.181Z,23.67
2022-10-20T21:36:55.946Z,24.45
2022-10-20T21:39:24.951Z,23.02
2022-10-20T21:41:53.725Z,22.65
2022-10-20T21:44:22.854Z,22.08
2022-10-20T21:46:53.650Z,22.88
2022-10-20T21:49:25.503Z,23.45
2022-10-20T21:51:56.189Z,21.52
2022-10-20T21:54:26.725Z,23.92
2022-10-20T21:56:56.479Z,22.58
2022-10-20T21:59:26.643Z,23.42
2022-10-20T22:01:58.616Z,23.80
2022-10-20T22:04:29.598Z,22.95
2022-10-20T22:06:59.620Z,24.70
2022-10-20T22:09:28.931Z,23.38
2022-10-20T22:11:59.135Z,23.33
2022-10-20T22:14:28.270Z,24.20
2022-10-20T22:16:58.538Z,25.80
2022-10-20T22:19:27.329Z,24.58
2022-10-20T22:24:30.762Z,23.80
2022-10-20T22:26:59.685Z,24.05
2022-10-20T22:29:28.954Z,24.75
2022-10-20T22:31:59.288Z,23.85
2022-10-20T22:34:28.118Z,25.23
2022-10-20T22:36:57.818Z,25.50
2022-10-20T22:39:26.568Z,25.85
2022-10-20T22:41:55.338Z,26.20
2022-10-20T22:44:24.129Z,24.77
2022-10-20T22:46:53.048Z,26.25
2022-10-20T22:49:23.299Z,25.02
2022-10-20T22:51:52.065Z,24.92
2022-10-20T22:54:20.975Z,24.67
2022-10-20T22:56:52.656Z,26.08
2022-10-20T22:59:21.665Z,24.27
2022-10-20T23:01:50.409Z,25.60
2022-10-20T23:04:19.259Z,24.58
2022-10-20T23:06:49.466Z,25.17
2022-10-20T23:09:18.457Z,26.13
2022-10-20T23:11:47.283Z,26.95
2022-10-20T23:14:16.014Z,26.45
2022-10-20T23:16:44.762Z,26.30
2022-10-20T23:19:13.795Z,26.52
2022-10-20T23:21:42.598Z,24.98
2022-10-20T23:24:12.887Z,24.83
2022-10-20T23:26:41.679Z,24.80
2022-10-20T23:29:10.718Z,24.92
2022-10-20T23:31:39.591Z,24.98
2022-10-20T23:34:08.353Z,23.05
2022-10-20T23:36:39.085Z,25.25
2022-10-20T23:39:08.296Z,23.90
2022-10-20T23:41:38.556Z,23.13
2022-10-20T23:44:07.676Z,22.58
2022-10-20T23:46:36.574Z,24.08
2022-10-20T23:49:06.375Z,24.67
2022-10-20T23:51:35.208Z,24.15
2022-10-20T23:54:04.156Z,24.15
2022-10-20T23:56:33.016Z,24.33
2022-10-20T23:59:03.492Z,24.25
